createdAt,value
2018-12-03T00:01:26.177Z,44.80
2018-12-03T00:03:58.889Z,44.40
2018-12-03T00:06:30.014Z,44.80
2018-12-03T00:09:00.717Z,44.80
2018-12-03T00:11:30.562Z,44.70
2018-12-03T00:14:00.160Z,44.80
2018-12-03T00:16:30.334Z,44.20
2018-12-03T00:19:00.576Z,44.30
2018-12-03T00:21:31.067Z,44.30
2018-12-03T00:24:00.631Z,43.80
2018-12-03T00:26:30.229Z,44.30
2018-12-03T00:29:00.435Z,44.10
2018-12-03T00:31:29.916Z,43.80
2018-12-03T00:33:59.467Z,43.90
2018-12-03T00:36:29.501Z,43.80
2018-12-03T00:38:59.199Z,43.40
2018-12-03T00:41:29.153Z,43.40
2018-12-03T00:43:59.358Z,42.80
2018-12-03T00:46:29.362Z,43.40
2018-12-03T00:48:59.430Z,42.70
2018-12-03T00:51:28.991Z,42.50
2018-12-03T00:53:59.094Z,43.50
2018-12-03T00:56:29.337Z,42.30
2018-12-03T00:58:58.935Z,42.50
2018-12-03T01:01:34.375Z,42.70
2018-12-03T01:04:04.951Z,42.60
2018-12-03T01:06:34.702Z,42.90
2018-12-03T01:09:07.703Z,42.20
2018-12-03T01:11:37.830Z,42.60
2018-12-03T01:14:07.837Z,42.10
2018-12-03T01:16:37.704Z,42.40
2018-12-03T01:19:07.794Z,42.10
2018-12-03T01:21:38.458Z,42.20
2018-12-03T01:24:07.882Z,42.20
2018-12-03T01:26:37.826Z,42.50
2018-12-03T01:29:07.745Z,42.40
2018-12-03T01:31:38.689Z,42.30
2018-12-03T01:34:10.028Z,42.10
2018-12-03T01:36:40.088Z,42.00
2018-12-03T01:39:09.994Z,42.50
2018-12-03T01:41:39.919Z,43.80
2018-12-03T01:44:10.729Z,43.90
2018-12-03T01:46:40.742Z,44.40
2018-12-03T01:49:10.070Z,44.70
2018-12-03T01:51:40.681Z,44.90
2018-12-03T01:54:10.942Z,46.00
2018-12-03T01:56:41.455Z,45.60
2018-12-03T01:59:11.458Z,45.70
2018-12-03T02:01:41.700Z,45.70
2018-12-03T02:04:12.728Z,45.80
2018-12-03T02:06:42.638Z,45.80
2018-12-03T02:09:12.390Z,46.20
2018-12-03T02:11:42.333Z,46.50
2018-12-03T02:14:12.264Z,46.20
2018-12-03T02:16:42.791Z,46.30
2018-12-03T02:19:12.734Z,45.90
2018-12-03T02:21:42.530Z,46.70
2018-12-03T02:24:12.897Z,46.50
2018-12-03T02:26:43.652Z,46.80
2018-12-03T02:29:12.894Z,46.90
2018-12-03T02:31:43.493Z,46.60
2018-12-03T02:34:13.482Z,46.70
2018-12-03T02:36:44.009Z,47.20
2018-12-03T02:39:15.561Z,47.20
2018-12-03T02:41:45.429Z,47.60
2018-12-03T02:44:16.081Z,47.00
2018-12-03T02:46:47.008Z,47.30
2018-12-03T02:49:16.277Z,48.50
2018-12-03T02:51:47.286Z,48.20
2018-12-03T02:54:17.224Z,48.50
2018-12-03T02:56:47.837Z,48.30
2018-12-03T02:59:18.177Z,48.30
2018-12-03T03:01:49.441Z,48.30
2018-12-03T03:04:20.061Z,48.40
2018-12-03T03:06:51.280Z,48.40
2018-12-03T03:09:21.272Z,48.10
2018-12-03T03:11:53.084Z,48.50
2018-12-03T03:14:23.167Z,48.30
2018-12-03T03:16:53.210Z,47.50
2018-12-03T03:19:23.954Z,47.70
2018-12-03T03:21:54.361Z,47.20
2018-12-03T03:24:26.800Z,47.40
2018-12-03T03:26:56.802Z,47.40
2018-12-03T03:29:26.112Z,47.60
2018-12-03T03:31:55.920Z,47.90
2018-12-03T03:34:25.728Z,47.80
2018-12-03T03:36:56.733Z,47.60
2018-12-03T03:39:27.094Z,47.50
2018-12-03T03:41:56.447Z,47.10
2018-12-03T03:44:27.138Z,47.50
2018-12-03T03:46:56.539Z,46.80
2018-12-03T03:49:26.390Z,46.70
2018-12-03T03:51:55.726Z,46.90
2018-12-03T03:54:25.501Z,47.00
2018-12-03T03:56:54.365Z,46.30
2018-12-03T03:59:23.650Z,47.00
2018-12-03T04:01:52.942Z,46.80
2018-12-03T04:04:24.409Z,46.30
2018-12-03T04:06:53.662Z,46.50
2018-12-03T04:09:23.700Z,46.50
2018-12-03T04:11:53.003Z,46.60
2018-12-03T04:14:22.284Z,46.80
2018-12-03T04:16:52.158Z,46.30
2018-12-03T04:19:21.950Z,46.50
2018-12-03T04:21:52.569Z,46.20
2018-12-03T04:24:21.850Z,46.20
2018-12-03T04:26:52.461Z,46.40
2018-12-03T04:29:22.843Z,46.30
2018-12-03T04:31:52.648Z,46.20
2018-12-03T04:34:22.820Z,46.30
2018-12-03T04:36:52.099Z,45.80
2018-12-03T04:39:21.873Z,46.30
2018-12-03T04:41:51.747Z,46.20
2018-12-03T04:44:21.240Z,46.40
2018-12-03T04:46:51.850Z,46.50
2018-12-03T04:49:22.355Z,47.50
2018-12-03T04:51:54.293Z,46.50
2018-12-03T04:54:23.672Z,46.40
2018-12-03T04:56:54.213Z,46.20
2018-12-03T04:59:24.703Z,46.50
2018-12-03T05:01:54.586Z,46.00
2018-12-03T05:04:25.044Z,46.30
2018-12-03T05:06:55.433Z,46.30
2018-12-03T05:09:25.321Z,45.90
2018-12-03T05:11:55.304Z,46.10
2018-12-03T05:14:25.939Z,46.10
2018-12-03T05:16:56.221Z,46.00
2018-12-03T05:19:26.142Z,45.80
2018-12-03T05:21:56.825Z,45.80
2018-12-03T05:24:27.342Z,45.70
2018-12-03T05:26:56.581Z,45.80
2018-12-03T05:29:25.797Z,46.20
2018-12-03T05:31:55.755Z,45.50
2018-12-03T05:34:25.972Z,45.60
2018-12-03T05:36:55.292Z,45.70
2018-12-03T05:39:24.760Z,45.50
2018-12-03T05:41:54.110Z,45.20
2018-12-03T05:44:23.471Z,45.80
2018-12-03T05:46:54.590Z,45.50
2018-12-03T05:49:24.144Z,45.70
2018-12-03T05:51:57.540Z,45.70
2018-12-03T05:54:27.696Z,45.70
2018-12-03T05:56:56.935Z,45.70
2018-12-03T05:59:26.195Z,45.70
2018-12-03T06:01:55.405Z,45.40
2018-12-03T06:04:25.895Z,45.10
2018-12-03T06:06:55.166Z,45.90
2018-12-03T06:09:25.439Z,45.20
2018-12-03T06:11:56.021Z,45.50
2018-12-03T06:14:26.889Z,46.10
2018-12-03T06:16:56.898Z,46.30
2018-12-03T06:19:27.413Z,47.10
2018-12-03T06:21:57.425Z,46.00
2018-12-03T06:24:28.098Z,46.20
2018-12-03T06:26:58.101Z,46.00
2018-12-03T06:29:28.697Z,46.30
2018-12-03T06:31:58.276Z,45.50
2018-12-03T06:34:28.835Z,45.80
2018-12-03T06:36:58.797Z,44.80
2018-12-03T06:39:29.688Z,44.80
2018-12-03T06:41:59.774Z,44.90
2018-12-03T06:44:30.558Z,45.00
2018-12-03T06:47:01.135Z,45.00
2018-12-03T06:49:30.489Z,45.00
2018-12-03T06:52:01.573Z,45.10
2018-12-03T06:54:32.351Z,44.80
2018-12-03T06:57:02.786Z,44.40
2018-12-03T06:59:33.837Z,44.50
2018-12-03T07:02:04.038Z,44.30
2018-12-03T07:04:34.692Z,45.50
2018-12-03T07:07:04.998Z,44.70
2018-12-03T07:09:34.377Z,44.80
2018-12-03T07:12:04.825Z,44.70
2018-12-03T07:14:35.597Z,44.10
2018-12-03T07:17:06.460Z,44.70
2018-12-03T07:19:37.078Z,44.20
2018-12-03T07:22:06.715Z,43.60
2018-12-03T07:24:36.745Z,43.80
2018-12-03T07:27:06.302Z,43.10
2018-12-03T07:29:36.954Z,42.90
2018-12-03T07:32:07.377Z,42.80
2018-12-03T07:34:37.587Z,42.90
2018-12-03T07:37:08.257Z,42.80
2018-12-03T07:39:38.662Z,42.50
2018-12-03T07:42:09.297Z,42.40
2018-12-03T07:44:38.613Z,41.60
2018-12-03T07:47:08.810Z,40.20
2018-12-03T07:49:40.030Z,40.10
2018-12-03T07:52:09.446Z,40.40
2018-12-03T07:54:40.194Z,40.30
2018-12-03T07:57:10.736Z,40.30
2018-12-03T07:59:40.509Z,40.00
2018-12-03T08:02:10.951Z,40.10
2018-12-03T08:04:41.762Z,40.20
2018-12-03T08:07:12.911Z,40.30
2018-12-03T08:09:42.936Z,40.10
2018-12-03T08:12:12.274Z,40.50
2018-12-03T08:14:41.677Z,40.20
2018-12-03T08:17:11.841Z,40.50
2018-12-03T08:19:43.938Z,40.10
2018-12-03T08:22:14.214Z,38.50
2018-12-03T08:24:44.218Z,38.30
2018-12-03T08:27:13.493Z,39.30
2018-12-03T08:29:43.335Z,38.70
2018-12-03T08:32:12.732Z,39.50
2018-12-03T08:34:43.126Z,38.90
2018-12-03T08:37:13.794Z,38.30
2018-12-03T08:39:43.702Z,38.30
2018-12-03T08:42:13.748Z,38.40
2018-12-03T08:44:43.153Z,37.40
2018-12-03T08:47:13.284Z,37.50
2018-12-03T08:49:43.769Z,36.30
2018-12-03T08:52:13.739Z,36.80
2018-12-03T08:54:43.051Z,36.30
2018-12-03T08:57:12.981Z,36.60
2018-12-03T08:59:43.071Z,36.60
2018-12-03T09:02:12.346Z,36.80
2018-12-03T09:04:41.662Z,36.20
2018-12-03T09:07:10.997Z,36.50
2018-12-03T09:09:41.627Z,37.00
2018-12-03T09:12:10.920Z,36.50
2018-12-03T09:14:40.795Z,36.60
2018-12-03T09:17:11.848Z,36.90
2018-12-03T09:19:41.792Z,37.30
2018-12-03T09:22:11.641Z,37.70
2018-12-03T09:24:40.950Z,37.20
2018-12-03T09:27:10.419Z,37.20
2018-12-03T09:29:40.005Z,37.30
2018-12-03T09:32:09.296Z,36.60
2018-12-03T09:34:39.597Z,36.60
2018-12-03T09:37:10.184Z,36.50
2018-12-03T09:39:41.066Z,36.70
2018-12-03T09:42:10.306Z,36.50
2018-12-03T09:44:40.732Z,36.50
2018-12-03T09:47:10.062Z,35.90
2018-12-03T09:49:39.322Z,35.70
2018-12-03T09:52:14.562Z,35.70
2018-12-03T09:54:44.732Z,35.40
2018-12-03T09:57:14.831Z,35.60
2018-12-03T09:59:45.340Z,36.50
2018-12-03T10:02:15.555Z,35.90
2018-12-03T10:04:47.101Z,35.60
2018-12-03T10:07:20.181Z,35.20
2018-12-03T10:09:51.784Z,34.70
2018-12-03T10:12:22.936Z,34.90
2018-12-03T10:14:53.452Z,34.30
2018-12-03T10:17:23.558Z,34.20
2018-12-03T10:19:54.731Z,33.70
2018-12-03T10:22:25.428Z,33.80
2018-12-03T10:24:56.506Z,33.70
2018-12-03T10:27:27.460Z,34.00
2018-12-03T10:29:57.752Z,33.40
2018-12-03T10:32:27.889Z,32.80
2018-12-03T10:34:58.620Z,33.60
2018-12-03T10:37:29.234Z,34.00
2018-12-03T10:40:00.391Z,33.10
2018-12-03T10:42:31.184Z,32.40
2018-12-03T10:45:02.248Z,32.20
2018-12-03T10:47:31.856Z,32.50
2018-12-03T10:50:02.920Z,33.60
2018-12-03T10:52:32.998Z,32.70
2018-12-03T10:55:03.490Z,33.00
2018-12-03T10:57:37.053Z,33.10
2018-12-03T11:00:23.889Z,32.40
2018-12-03T11:02:59.585Z,32.00
2018-12-03T11:05:36.497Z,32.00
2018-12-03T11:08:06.348Z,31.60
2018-12-03T11:10:37.923Z,32.00
2018-12-03T11:13:07.616Z,31.30
2018-12-03T11:15:37.393Z,31.30
2018-12-03T11:18:08.237Z,30.40
2018-12-03T11:20:38.556Z,30.70
2018-12-03T11:23:09.642Z,30.80
2018-12-03T11:25:41.454Z,30.50
2018-12-03T11:28:13.340Z,30.00
2018-12-03T11:30:49.986Z,29.50
2018-12-03T11:33:24.270Z,29.50
2018-12-03T11:35:56.208Z,29.30
2018-12-03T11:39:43.986Z,29.30
2018-12-03T11:42:14.130Z,29.60
2018-12-03T11:44:43.777Z,29.50
2018-12-03T11:47:13.980Z,28.30
2018-12-03T11:49:44.115Z,28.60
2018-12-03T11:52:14.322Z,28.10
2018-12-03T11:54:44.423Z,28.40
2018-12-03T11:57:14.969Z,28.50
2018-12-03T11:59:46.361Z,28.30
2018-12-03T12:02:16.487Z,28.00
2018-12-03T12:04:46.062Z,27.70
2018-12-03T12:07:16.135Z,27.50
2018-12-03T12:09:46.519Z,27.40
2018-12-03T12:12:16.083Z,27.10
2018-12-03T12:14:46.886Z,27.20
2018-12-03T12:17:16.406Z,27.20
2018-12-03T12:19:48.492Z,28.00
2018-12-03T12:22:18.657Z,28.20
2018-12-03T12:24:49.205Z,28.50
2018-12-03T12:27:19.707Z,27.70
2018-12-03T12:29:50.005Z,28.20
2018-12-03T12:32:20.710Z,28.30
2018-12-03T12:34:50.464Z,27.70
2018-12-03T12:37:20.642Z,27.70
2018-12-03T12:39:51.211Z,27.60
2018-12-03T12:42:21.048Z,27.80
2018-12-03T12:44:51.973Z,27.70
2018-12-03T12:47:22.865Z,27.90
2018-12-03T12:49:52.519Z,28.00
2018-12-03T12:52:23.234Z,28.50
2018-12-03T12:54:52.954Z,28.60
2018-12-03T12:57:24.906Z,28.80
2018-12-03T12:59:55.179Z,28.70
2018-12-03T13:02:25.292Z,28.80
2018-12-03T13:04:54.812Z,28.40
2018-12-03T13:07:25.362Z,29.10
2018-12-03T13:09:56.329Z,28.80
2018-12-03T13:12:27.500Z,28.90
2018-12-03T13:14:58.208Z,28.80
2018-12-03T13:17:28.093Z,29.00
2018-12-03T13:19:59.258Z,28.70
2018-12-03T13:22:35.494Z,28.70
2018-12-03T13:25:08.621Z,28.90
2018-12-03T13:27:39.904Z,28.60
2018-12-03T13:30:14.176Z,28.10
2018-12-03T13:32:44.382Z,28.20
2018-12-03T13:35:14.913Z,28.20
2018-12-03T13:37:45.825Z,28.00
2018-12-03T13:40:16.974Z,28.20
2018-12-03T13:42:48.214Z,28.40
2018-12-03T13:45:19.571Z,28.30
2018-12-03T13:47:51.664Z,27.80
2018-12-03T13:50:22.176Z,27.80
2018-12-03T13:52:51.689Z,27.90
2018-12-03T13:55:22.110Z,27.90
2018-12-03T13:57:51.755Z,28.20
2018-12-03T14:00:24.104Z,28.20
2018-12-03T14:03:01.534Z,28.30
2018-12-03T14:05:33.765Z,28.50
2018-12-03T14:08:11.395Z,28.70
2018-12-03T14:11:05.750Z,29.00
2018-12-03T14:13:52.142Z,29.00
2018-12-03T14:16:31.169Z,29.10
2018-12-03T14:19:04.205Z,29.10
2018-12-03T14:21:36.572Z,29.10
2018-12-03T14:24:12.868Z,29.00
2018-12-03T14:26:42.904Z,29.00
2018-12-03T14:29:14.164Z,29.00
2018-12-03T14:31:43.560Z,29.00
2018-12-03T14:34:22.166Z,29.10
2018-12-03T14:36:53.434Z,29.20
2018-12-03T14:39:23.369Z,28.90
2018-12-03T14:41:53.840Z,28.90
2018-12-03T14:44:24.574Z,28.90
2018-12-03T14:46:55.191Z,29.10
2018-12-03T14:49:26.460Z,29.40
2018-12-03T14:51:56.243Z,29.40
2018-12-03T14:54:27.717Z,29.70
2018-12-03T14:56:57.782Z,30.00
2018-12-03T14:59:27.581Z,30.30
2018-12-03T15:01:56.859Z,30.00
2018-12-03T15:04:27.271Z,30.40
2018-12-03T15:06:57.688Z,30.10
2018-12-03T15:09:27.809Z,30.00
2018-12-03T15:11:57.948Z,30.00
2018-12-03T15:14:27.736Z,30.10
2018-12-03T15:17:01.006Z,30.00
2018-12-03T15:19:32.118Z,30.00
2018-12-03T15:22:02.783Z,30.10
2018-12-03T15:24:32.166Z,30.70
2018-12-03T15:27:02.310Z,30.40
2018-12-03T15:29:32.409Z,30.30
2018-12-03T15:32:03.928Z,30.60
2018-12-03T15:34:34.425Z,30.40
2018-12-03T15:37:05.485Z,30.60
2018-12-03T15:39:35.549Z,30.80
2018-12-03T15:42:06.358Z,30.90
2018-12-03T15:44:37.274Z,31.10
2018-12-03T15:47:07.409Z,30.70
2018-12-03T15:49:38.356Z,30.80
2018-12-03T15:52:09.595Z,31.30
2018-12-03T15:54:39.994Z,31.40
2018-12-03T15:57:09.991Z,31.70
2018-12-03T15:59:39.362Z,31.80
2018-12-03T16:02:09.946Z,31.80
2018-12-03T16:04:41.366Z,32.10
2018-12-03T16:07:10.685Z,32.30
2018-12-03T16:09:40.460Z,32.20
2018-12-03T16:12:10.482Z,32.30
2018-12-03T16:14:40.743Z,32.60
2018-12-03T16:17:10.649Z,32.90
2018-12-03T16:19:40.574Z,33.00
2018-12-03T16:22:10.140Z,32.90
2018-12-03T16:24:40.764Z,33.10
2018-12-03T16:27:10.188Z,33.50
2018-12-03T16:29:41.131Z,33.40
2018-12-03T16:32:10.502Z,33.80
2018-12-03T16:34:41.435Z,33.70
2018-12-03T16:37:11.394Z,33.60
2018-12-03T16:39:40.638Z,33.50
2018-12-03T16:42:11.281Z,33.90
2018-12-03T16:44:43.224Z,33.50
2018-12-03T16:47:13.349Z,33.60
2018-12-03T16:49:43.437Z,33.80
2018-12-03T16:52:12.707Z,33.70
2018-12-03T16:54:42.189Z,33.90
2018-12-03T16:57:11.424Z,33.30
2018-12-03T16:59:41.428Z,33.10
2018-12-03T17:02:11.538Z,33.20
2018-12-03T17:04:42.064Z,33.00
2018-12-03T17:07:14.138Z,32.80
2018-12-03T17:09:43.135Z,32.70
2018-12-03T17:12:14.739Z,32.50
2018-12-03T17:14:44.321Z,32.30
2018-12-03T17:17:14.354Z,32.60
2018-12-03T17:20:00.445Z,32.20
2018-12-03T17:23:03.273Z,32.10
2018-12-03T17:25:33.742Z,32.20
2018-12-03T17:28:04.773Z,32.60
2018-12-03T17:30:36.246Z,33.70
2018-12-03T17:33:05.892Z,36.10
2018-12-03T17:35:38.633Z,38.40
2018-12-03T17:38:07.912Z,40.10
2018-12-03T17:40:39.591Z,40.80
2018-12-03T17:43:10.742Z,42.20
2018-12-03T17:45:41.855Z,42.30
2018-12-03T17:48:12.411Z,43.20
2018-12-03T17:50:42.293Z,42.50
2018-12-03T17:53:12.849Z,42.60
2018-12-03T17:55:42.803Z,43.50
2018-12-03T17:58:12.607Z,43.10
2018-12-03T18:00:42.997Z,43.10
2018-12-03T18:03:13.704Z,43.80
2018-12-03T18:05:44.473Z,43.40
2018-12-03T18:08:14.422Z,43.50
2018-12-03T18:10:45.147Z,44.30
2018-12-03T18:13:15.151Z,42.70
2018-12-03T18:15:45.748Z,42.70
2018-12-03T18:18:15.061Z,42.20
2018-12-03T18:20:45.887Z,42.20
2018-12-03T18:23:17.684Z,41.50
2018-12-03T18:25:51.597Z,40.90
2018-12-03T18:28:21.973Z,41.20
2018-12-03T18:30:52.418Z,41.60
2018-12-03T18:33:23.025Z,40.40
2018-12-03T18:35:53.590Z,40.20
2018-12-03T18:38:25.224Z,40.60
2018-12-03T18:40:55.180Z,39.40
2018-12-03T18:43:25.192Z,40.70
2018-12-03T18:45:56.539Z,40.20
2018-12-03T18:48:26.842Z,38.90
2018-12-03T18:50:57.070Z,39.00
2018-12-03T18:53:28.474Z,38.10
2018-12-03T18:55:57.894Z,38.60
2018-12-03T18:58:33.379Z,38.20
2018-12-03T19:01:04.492Z,37.50
2018-12-03T19:03:34.032Z,36.40
2018-12-03T19:06:05.224Z,37.70
2018-12-03T19:08:34.957Z,36.50
2018-12-03T19:11:05.606Z,36.50
2018-12-03T19:13:35.071Z,35.70
2018-12-03T19:16:05.704Z,36.40
2018-12-03T19:18:35.476Z,37.20
2018-12-03T19:21:05.275Z,35.80
2018-12-03T19:23:35.787Z,34.80
2018-12-03T19:26:06.595Z,34.90
2018-12-03T19:28:36.430Z,34.90
2018-12-03T19:31:05.781Z,35.40
2018-12-03T19:33:35.215Z,34.40
2018-12-03T19:36:25.944Z,34.20
2018-12-03T19:38:56.092Z,33.60
2018-12-03T19:41:26.155Z,32.90
2018-12-03T19:43:55.507Z,33.00
2018-12-03T19:46:24.870Z,31.90
2018-12-03T19:48:54.862Z,32.00
2018-12-03T19:51:25.722Z,31.70
2018-12-03T19:53:56.853Z,31.00
2018-12-03T19:56:27.896Z,30.80
2018-12-03T19:59:33.694Z,32.00
2018-12-03T20:02:04.421Z,34.00
2018-12-03T20:04:39.303Z,34.90
2018-12-03T20:07:11.651Z,34.60
2018-12-03T20:09:41.235Z,37.10
2018-12-03T20:12:11.907Z,38.10
2018-12-03T20:14:42.357Z,38.50
2018-12-03T20:17:16.986Z,39.20
2018-12-03T20:19:46.613Z,40.10
2018-12-03T20:22:18.040Z,40.20
2018-12-03T20:24:49.117Z,39.00
2018-12-03T20:27:24.934Z,39.80
2018-12-03T20:31:10.859Z,39.80
2018-12-03T20:33:52.673Z,40.10
2018-12-03T20:37:36.297Z,39.90
2018-12-03T20:40:26.817Z,40.30
2018-12-03T20:43:09.769Z,40.50
2018-12-03T20:46:16.702Z,41.80
2018-12-03T20:49:03.919Z,42.10
2018-12-03T20:51:38.584Z,42.80
2018-12-03T20:54:11.929Z,43.00
2018-12-03T20:56:43.306Z,42.40
2018-12-03T20:59:20.201Z,41.50
2018-12-03T21:01:51.709Z,41.80
2018-12-03T21:04:24.092Z,40.40
2018-12-03T21:06:54.208Z,40.60
2018-12-03T21:09:24.400Z,40.00
2018-12-03T21:11:53.971Z,40.20
2018-12-03T21:14:24.874Z,38.50
2018-12-03T21:16:56.098Z,37.90
2018-12-03T21:19:27.251Z,37.50
2018-12-03T21:21:58.935Z,37.70
2018-12-03T21:24:31.545Z,37.80
2018-12-03T21:27:02.316Z,37.10
2018-12-03T21:29:32.704Z,36.60
2018-12-03T21:32:02.313Z,36.90
2018-12-03T21:34:32.723Z,37.80
2018-12-03T21:37:02.935Z,39.00
2018-12-03T21:39:33.422Z,40.30
2018-12-03T21:42:04.644Z,39.80
2018-12-03T21:44:35.629Z,40.00
2018-12-03T21:47:06.506Z,39.20
2018-12-03T21:49:38.045Z,39.30
2018-12-03T21:52:07.961Z,37.60
2018-12-03T21:54:37.919Z,38.30
2018-12-03T21:57:10.785Z,37.70
2018-12-03T21:59:39.343Z,37.60
2018-12-03T22:02:09.461Z,36.90
2018-12-03T22:04:39.188Z,37.10
2018-12-03T22:07:08.988Z,35.90
2018-12-03T22:09:38.721Z,35.90
2018-12-03T22:12:09.956Z,36.00
2018-12-03T22:14:39.853Z,34.40
2018-12-03T22:17:10.274Z,34.30
2018-12-03T22:19:40.919Z,34.50
2018-12-03T22:22:10.323Z,34.30
2018-12-03T22:24:40.687Z,34.80
2018-12-03T22:27:11.900Z,34.40
2018-12-03T22:29:42.775Z,35.90
2018-12-03T22:32:13.842Z,35.70
2018-12-03T22:34:43.780Z,36.20
2018-12-03T22:37:13.299Z,38.00
2018-12-03T22:39:46.381Z,38.40
2018-12-03T22:42:16.662Z,39.40
2018-12-03T22:44:48.251Z,40.00
2018-12-03T22:47:18.963Z,40.80
2018-12-03T22:49:48.266Z,41.10
2018-12-03T22:52:18.322Z,43.20
2018-12-03T22:54:48.631Z,42.10
2018-12-03T22:57:19.589Z,41.40
2018-12-03T22:59:50.538Z,43.80
2018-12-03T23:02:20.381Z,45.30
2018-12-03T23:04:51.883Z,45.90
2018-12-03T23:07:22.701Z,46.10
2018-12-03T23:09:53.433Z,46.10
2018-12-03T23:12:23.766Z,45.50
2018-12-03T23:14:53.719Z,46.10
2018-12-03T23:17:24.236Z,46.30
2018-12-03T23:19:55.218Z,46.70
2018-12-03T23:22:26.003Z,46.30
2018-12-03T23:24:55.778Z,46.30
2018-12-03T23:27:26.973Z,45.50
2018-12-03T23:29:57.686Z,45.40
2018-12-03T23:32:29.085Z,45.10
2018-12-03T23:34:59.563Z,45.70
2018-12-03T23:37:28.871Z,46.00
2018-12-03T23:39:59.525Z,43.90
2018-12-03T23:42:29.740Z,45.50
2018-12-03T23:44:59.008Z,45.50
2018-12-03T23:47:29.978Z,46.30
2018-12-03T23:49:59.769Z,45.90
2018-12-03T23:52:30.600Z,45.50
2018-12-03T23:55:01.075Z,45.80
2018-12-03T23:57:31.184Z,45.30
